createdAt,value
2022-12-06T00:03:38.547Z,101132.84
2022-12-06T00:08:40.608Z,101122.41
2022-12-06T00:13:42.770Z,101118.47
2022-12-06T00:18:46.355Z,101105.34
2022-12-06T00:23:50.054Z,101107.81
2022-12-06T00:28:59.698Z,101107.31
2022-12-06T00:34:01.809Z,101094.66
2022-12-06T00:39:08.401Z,101091.69
2022-12-06T00:44:10.692Z,101090.03
2022-12-06T00:49:12.654Z,101078.28
2022-12-06T00:54:14.780Z,101068.97
2022-12-06T00:59:16.622Z,101054.84
2022-12-06T01:04:18.459Z,101057.63
2022-12-06T01:09:20.320Z,101064.53
2022-12-06T01:14:22.148Z,101055.44
2022-12-06T01:19:24.004Z,101047.41
2022-12-06T01:24:25.852Z,101049.22
2022-12-06T01:29:27.745Z,101037.31
2022-12-06T01:34:29.708Z,101029.53
2022-12-06T01:39:31.605Z,101043.97
2022-12-06T01:44:46.097Z,101044.53
2022-12-06T01:49:54.286Z,101048.09
2022-12-06T01:54:56.127Z,101034.09
2022-12-06T01:59:58.349Z,101012.50
2022-12-06T02:05:00.543Z,101010.06
2022-12-06T02:10:02.690Z,101008.97
2022-12-06T02:15:04.737Z,101005.44
2022-12-06T02:20:45.066Z,101007.34
2022-12-06T02:26:15.891Z,101017.22
2022-12-06T02:31:56.174Z,101007.31
2022-12-06T02:37:06.918Z,100989.25
2022-12-06T02:42:33.308Z,100972.59
2022-12-06T02:47:36.068Z,100979.25
2022-12-06T02:52:39.307Z,100972.47
2022-12-06T02:57:49.218Z,100968.56
2022-12-06T03:02:51.487Z,100986.13
2022-12-06T03:07:53.437Z,100979.44
2022-12-06T03:13:10.776Z,100983.69
2022-12-06T03:18:21.625Z,100983.00
2022-12-06T03:23:32.175Z,100980.13
2022-12-06T03:28:34.867Z,100991.47
2022-12-06T03:33:37.811Z,100977.38
2022-12-06T03:39:03.768Z,100972.22
2022-12-06T03:44:05.737Z,100957.91
2022-12-06T03:49:13.744Z,100957.50
2022-12-06T03:54:15.677Z,100936.19
2022-12-06T03:59:17.536Z,100939.19
2022-12-06T04:04:19.417Z,100944.22
2022-12-06T04:09:21.500Z,100950.03
2022-12-06T04:14:23.411Z,100934.28
2022-12-06T04:19:25.349Z,100939.19
2022-12-06T04:24:27.268Z,100939.88
2022-12-06T04:29:29.136Z,100938.94
2022-12-06T04:34:31.205Z,100931.66
2022-12-06T04:39:33.317Z,100916.91
2022-12-06T04:44:35.167Z,100923.66
2022-12-06T04:49:37.214Z,100922.91
2022-12-06T04:54:38.992Z,100920.03
2022-12-06T04:59:42.081Z,100920.75
2022-12-06T05:04:43.903Z,100923.44
2022-12-06T05:09:45.786Z,100927.34
2022-12-06T05:14:47.651Z,100921.41
2022-12-06T05:19:49.404Z,100920.97
2022-12-06T05:24:51.299Z,100919.22
2022-12-06T05:29:53.095Z,100916.22
2022-12-06T05:34:54.993Z,100912.75
2022-12-06T05:39:56.840Z,100913.63
2022-12-06T05:44:58.666Z,100910.41
2022-12-06T05:50:01.865Z,100915.38
2022-12-06T05:55:05.496Z,100902.84
2022-12-06T06:00:08.088Z,100895.06
2022-12-06T06:05:10.012Z,100890.22
2022-12-06T06:10:12.010Z,100884.25
2022-12-06T06:15:14.817Z,100886.00
2022-12-06T06:20:16.828Z,100880.69
2022-12-06T06:25:18.695Z,100883.88
2022-12-06T06:30:20.594Z,100882.81
2022-12-06T06:35:22.331Z,100881.94
2022-12-06T06:40:24.192Z,100888.84
2022-12-06T06:45:29.020Z,100888.59
2022-12-06T06:50:31.062Z,100888.19
2022-12-06T06:55:32.865Z,100896.84
2022-12-06T07:00:34.702Z,100887.19
2022-12-06T07:05:36.554Z,100890.81
2022-12-06T07:10:38.386Z,100891.03
2022-12-06T07:15:40.171Z,100885.25
2022-12-06T07:20:41.959Z,100886.84
2022-12-06T07:25:43.766Z,100881.72
2022-12-06T07:30:45.596Z,100883.44
2022-12-06T07:41:15.572Z,100893.81
2022-12-06T07:46:17.527Z,100895.69
2022-12-06T07:51:19.516Z,100887.34
2022-12-06T07:56:21.495Z,100880.94
2022-12-06T08:01:23.264Z,100883.41
2022-12-06T08:06:25.143Z,100870.63
2022-12-06T08:11:27.126Z,100876.44
2022-12-06T08:16:28.979Z,100870.31
2022-12-06T08:21:30.837Z,100870.91
2022-12-06T08:26:32.806Z,100851.13
2022-12-06T08:31:34.748Z,100844.56
2022-12-06T08:36:38.192Z,100843.66
2022-12-06T08:41:40.036Z,100838.97
2022-12-06T08:46:41.968Z,100840.16
2022-12-06T08:51:43.844Z,100820.81
2022-12-06T08:56:45.855Z,100819.00
2022-12-06T09:01:47.654Z,100810.25
2022-12-06T09:06:49.567Z,100808.13
2022-12-06T09:11:51.277Z,100801.81
2022-12-06T09:16:53.094Z,100806.91
2022-12-06T09:21:54.900Z,100791.44
2022-12-06T09:26:56.673Z,100783.31
2022-12-06T09:31:58.484Z,100783.63
2022-12-06T09:37:07.247Z,100779.09
2022-12-06T09:42:37.759Z,100776.78
2022-12-06T09:47:48.830Z,100777.16
2022-12-06T09:52:50.587Z,100771.72
2022-12-06T09:58:01.512Z,100764.03
2022-12-06T10:03:45.059Z,100749.00
2022-12-06T10:08:52.848Z,100754.38
2022-12-06T10:14:06.863Z,100752.91
2022-12-06T10:19:23.507Z,100738.00
2022-12-06T10:24:25.213Z,100736.75
2022-12-06T10:30:04.653Z,100733.06
2022-12-06T10:35:16.096Z,100720.91
2022-12-06T10:40:20.976Z,100712.28
2022-12-06T10:45:43.850Z,100718.34
2022-12-06T10:50:46.760Z,100710.16
2022-12-06T10:55:51.133Z,100711.56
2022-12-06T11:00:57.486Z,100691.09
2022-12-06T11:06:08.577Z,100687.31
2022-12-06T11:11:18.075Z,100700.69
2022-12-06T11:16:41.547Z,100693.91
2022-12-06T11:21:46.243Z,100688.38
2022-12-06T11:27:06.510Z,100701.72
2022-12-06T11:32:08.389Z,100687.34
2022-12-06T11:37:21.176Z,100686.63
2022-12-06T11:42:25.728Z,100681.47
2022-12-06T11:47:27.796Z,100672.94
2022-12-06T11:52:36.928Z,100674.66
2022-12-06T11:57:41.301Z,100666.22
2022-12-06T12:02:44.741Z,100665.19
2022-12-06T12:08:03.468Z,100664.28
2022-12-06T12:13:25.418Z,100671.84
2022-12-06T12:18:37.228Z,100669.28
2022-12-06T12:23:43.933Z,100671.75
2022-12-06T12:28:47.042Z,100664.72
2022-12-06T12:33:49.071Z,100658.56
2022-12-06T12:38:55.575Z,100658.44
2022-12-06T12:44:28.972Z,100653.16
2022-12-06T12:49:26.387Z,100671.84
2022-12-06T12:54:35.422Z,100663.09
2022-12-06T12:59:39.162Z,100665.53
2022-12-06T13:04:42.876Z,100655.06
2022-12-06T13:09:44.640Z,100662.28
2022-12-06T13:15:07.557Z,100655.00
2022-12-06T13:20:28.076Z,100655.31
2022-12-06T13:25:30.860Z,100662.22
2022-12-06T13:30:33.828Z,100661.44
2022-12-06T13:36:05.415Z,100656.66
2022-12-06T13:41:11.123Z,100656.56
2022-12-06T13:46:20.935Z,100657.53
2022-12-06T13:51:32.294Z,100650.78
2022-12-06T13:56:34.788Z,100651.75
2022-12-06T14:01:44.271Z,100639.34
2022-12-06T14:06:46.109Z,100644.06
2022-12-06T14:11:48.114Z,100649.78
2022-12-06T14:16:53.951Z,100643.69
2022-12-06T14:22:00.675Z,100646.25
2022-12-06T14:27:23.412Z,100637.44
2022-12-06T14:32:36.116Z,100640.81
2022-12-06T14:37:38.052Z,100641.84
2022-12-06T14:42:40.062Z,100640.19
2022-12-06T14:47:43.525Z,100639.88
2022-12-06T14:53:15.336Z,100633.56
2022-12-06T14:58:18.311Z,100615.41
2022-12-06T15:03:33.668Z,100615.72
2022-12-06T15:08:36.829Z,100621.59
2022-12-06T15:13:39.402Z,100619.25
2022-12-06T15:18:42.144Z,100633.13
2022-12-06T15:23:53.470Z,100623.22
2022-12-06T15:28:55.529Z,100614.53
2022-12-06T15:33:57.355Z,100610.59
2022-12-06T15:38:59.184Z,100615.72
2022-12-06T15:44:01.237Z,100607.94
2022-12-06T15:49:03.029Z,100612.28
2022-12-06T15:54:05.006Z,100603.59
2022-12-06T15:59:06.932Z,100613.97
2022-12-06T16:04:13.560Z,100602.78
2022-12-06T16:09:16.359Z,100606.25
2022-12-06T16:14:18.338Z,100600.00
2022-12-06T16:19:20.186Z,100612.06
2022-12-06T16:24:21.949Z,100615.13
2022-12-06T16:29:23.851Z,100601.78
2022-12-06T16:34:25.947Z,100608.84
2022-12-06T16:39:28.592Z,100591.78
2022-12-06T16:44:30.186Z,100598.38
2022-12-06T16:49:49.004Z,100589.72
2022-12-06T16:54:51.162Z,100591.19
2022-12-06T16:59:53.092Z,100600.44
2022-12-06T17:04:55.921Z,100595.75
2022-12-06T17:09:57.788Z,100587.97
2022-12-06T17:15:00.349Z,100588.63
2022-12-06T17:20:02.767Z,100589.72
2022-12-06T17:25:05.429Z,100584.31
2022-12-06T17:30:08.872Z,100583.66
2022-12-06T17:35:10.821Z,100578.06
2022-12-06T17:40:13.519Z,100577.25
2022-12-06T17:45:15.671Z,100577.09
2022-12-06T17:50:17.699Z,100573.56
2022-12-06T17:55:19.725Z,100569.00
2022-12-06T18:00:22.257Z,100553.53
2022-12-06T18:05:24.121Z,100567.13
2022-12-06T18:10:26.029Z,100554.81
2022-12-06T18:15:27.846Z,100564.88
2022-12-06T18:20:29.970Z,100573.22
2022-12-06T18:25:31.796Z,100574.19
2022-12-06T18:30:33.927Z,100563.59
2022-12-06T18:35:35.965Z,100565.38
2022-12-06T18:40:37.940Z,100569.31
2022-12-06T18:45:39.878Z,100565.94
2022-12-06T18:50:41.778Z,100559.63
2022-12-06T18:55:43.896Z,100552.97
2022-12-06T19:00:45.963Z,100548.25
2022-12-06T19:06:02.527Z,100550.03
2022-12-06T19:11:14.886Z,100551.41
2022-12-06T19:16:27.360Z,100539.16
2022-12-06T19:21:37.966Z,100540.59
2022-12-06T19:26:39.921Z,100534.97
2022-12-06T19:31:42.248Z,100527.13
2022-12-06T19:36:44.297Z,100532.28
2022-12-06T19:41:47.019Z,100520.41
2022-12-06T19:46:49.141Z,100527.88
2022-12-06T19:51:51.252Z,100524.19
2022-12-06T19:56:54.129Z,100522.59
2022-12-06T20:01:56.130Z,100525.06
2022-12-06T20:06:58.062Z,100520.09
2022-12-06T20:12:00.954Z,100509.78
2022-12-06T20:17:04.197Z,100508.94
2022-12-06T20:22:06.097Z,100518.47
2022-12-06T20:27:07.978Z,100525.22
2022-12-06T20:32:09.885Z,100516.88
2022-12-06T20:37:11.790Z,100525.41
2022-12-06T20:42:13.633Z,100526.41
2022-12-06T20:47:15.607Z,100516.88
2022-12-06T20:52:17.546Z,100510.00
2022-12-06T20:57:19.402Z,100519.53
2022-12-06T21:02:21.345Z,100515.84
2022-12-06T21:07:23.310Z,100513.34
2022-12-06T21:12:25.184Z,100516.88
2022-12-06T21:17:27.063Z,100522.75
2022-12-06T21:22:28.948Z,100516.22
2022-12-06T21:27:30.875Z,100525.88
2022-12-06T21:32:32.684Z,100527.53
2022-12-06T21:37:34.544Z,100525.94
2022-12-06T21:42:36.516Z,100516.25
2022-12-06T21:47:38.353Z,100512.88
2022-12-06T21:52:40.158Z,100524.47
2022-12-06T21:57:42.158Z,100511.25
2022-12-06T22:02:44.556Z,100522.78
2022-12-06T22:07:46.470Z,100522.69
2022-12-06T22:12:48.396Z,100519.97
2022-12-06T22:17:50.281Z,100520.78
2022-12-06T22:22:52.103Z,100524.63
2022-12-06T22:27:53.974Z,100520.06
2022-12-06T22:32:55.839Z,100523.41
2022-12-06T22:37:57.849Z,100529.25
2022-12-06T22:42:59.768Z,100527.38
2022-12-06T22:48:01.635Z,100540.38
2022-12-06T22:53:03.494Z,100531.28
2022-12-06T22:58:05.365Z,100521.56
2022-12-06T23:03:07.184Z,100523.09
2022-12-06T23:08:09.205Z,100525.72
2022-12-06T23:13:10.995Z,100531.81
2022-12-06T23:18:12.804Z,100527.81
2022-12-06T23:23:14.668Z,100521.75
2022-12-06T23:28:16.522Z,100518.03
2022-12-06T23:33:22.690Z,100523.50
2022-12-06T23:38:24.907Z,100521.75
2022-12-06T23:43:26.748Z,100522.53
2022-12-06T23:48:29.593Z,100526.69
2022-12-06T23:53:31.692Z,100530.56
2022-12-06T23:58:33.540Z,100522.88
